createdAt,value
2023-02-25T00:00:47.900Z,16.84
2023-02-25T00:02:02.758Z,16.83
2023-02-25T00:02:49.006Z,16.83
2023-02-25T00:03:47.942Z,16.83
2023-02-25T00:04:47.828Z,16.83
2023-02-25T00:05:47.832Z,16.83
2023-02-25T00:06:47.794Z,16.83
2023-02-25T00:07:47.807Z,16.83
2023-02-25T00:08:47.776Z,16.83
2023-02-25T00:09:47.787Z,16.81
2023-02-25T00:10:47.751Z,16.81
2023-02-25T00:11:47.760Z,16.81
2023-02-25T00:12:47.723Z,16.81
2023-02-25T00:13:47.724Z,16.81
2023-02-25T00:14:47.715Z,16.79
2023-02-25T00:15:47.705Z,16.79
2023-02-25T00:16:47.828Z,16.79
2023-02-25T00:17:47.704Z,16.79
2023-02-25T00:18:47.653Z,16.78
2023-02-25T00:19:47.657Z,16.78
2023-02-25T00:20:47.650Z,16.76
2023-02-25T00:21:47.631Z,16.76
2023-02-25T00:22:47.645Z,16.76
2023-02-25T00:23:47.694Z,16.75
2023-02-25T00:24:47.613Z,16.75
2023-02-25T00:25:47.606Z,16.75
2023-02-25T00:26:47.573Z,16.75
2023-02-25T00:27:47.594Z,16.74
2023-02-25T00:28:47.553Z,16.72
2023-02-25T00:29:47.534Z,16.74
2023-02-25T00:30:47.609Z,16.74
2023-02-25T00:31:47.851Z,16.72
2023-02-25T00:32:47.579Z,16.72
2023-02-25T00:33:47.550Z,16.72
2023-02-25T00:34:47.499Z,16.72
2023-02-25T00:35:47.491Z,16.71
2023-02-25T00:36:47.553Z,16.71
2023-02-25T00:37:47.464Z,16.71
2023-02-25T00:38:47.469Z,16.71
2023-02-25T00:39:47.428Z,16.72
2023-02-25T00:40:54.434Z,16.71
2023-02-25T00:41:47.421Z,16.72
2023-02-25T00:42:47.440Z,16.74
2023-02-25T00:43:47.405Z,16.74
2023-02-25T00:44:47.380Z,16.74
2023-02-25T00:45:47.378Z,16.75
2023-02-25T00:46:47.374Z,16.75
2023-02-25T00:47:47.354Z,16.75
2023-02-25T00:48:47.341Z,16.75
2023-02-25T00:49:47.373Z,16.75
2023-02-25T00:50:47.328Z,16.75
2023-02-25T00:51:47.301Z,16.75
2023-02-25T00:52:47.318Z,16.75
2023-02-25T00:53:47.288Z,16.78
2023-02-25T00:54:47.287Z,16.78
2023-02-25T00:55:47.314Z,16.78
2023-02-25T00:56:47.246Z,16.78
2023-02-25T00:57:47.266Z,16.78
2023-02-25T00:58:47.264Z,16.79
2023-02-25T00:59:47.208Z,16.78
2023-02-25T01:00:52.014Z,16.79
2023-02-25T01:01:48.305Z,16.79
2023-02-25T01:02:47.249Z,16.79
2023-02-25T01:03:47.187Z,16.81
2023-02-25T01:04:47.171Z,16.79
2023-02-25T01:05:47.173Z,16.79
2023-02-25T01:06:47.160Z,16.79
2023-02-25T01:07:47.129Z,16.79
2023-02-25T01:08:47.114Z,16.79
2023-02-25T01:09:47.129Z,16.81
2023-02-25T01:10:47.107Z,16.79
2023-02-25T01:11:47.072Z,16.81
2023-02-25T01:12:47.112Z,16.81
2023-02-25T01:13:47.068Z,16.79
2023-02-25T01:14:47.057Z,16.79
2023-02-25T01:15:47.094Z,16.78
2023-02-25T01:16:47.026Z,16.79
2023-02-25T01:17:47.019Z,16.78
2023-02-25T01:18:47.056Z,16.76
2023-02-25T01:19:47.018Z,16.78
2023-02-25T01:20:47.010Z,16.78
2023-02-25T01:21:46.976Z,16.78
2023-02-25T01:22:46.971Z,16.76
2023-02-25T01:23:46.968Z,16.78
2023-02-25T01:24:46.948Z,16.76
2023-02-25T01:25:46.943Z,16.76
2023-02-25T01:26:46.947Z,16.76
2023-02-25T01:27:46.904Z,16.76
2023-02-25T01:28:46.924Z,16.78
2023-02-25T01:29:46.900Z,16.76
2023-02-25T01:30:46.902Z,16.75
2023-02-25T01:31:47.169Z,16.75
2023-02-25T01:32:46.886Z,16.74
2023-02-25T01:33:46.845Z,16.74
2023-02-25T01:34:46.888Z,16.74
2023-02-25T01:35:46.910Z,16.74
2023-02-25T01:36:46.817Z,16.71
2023-02-25T01:37:47.646Z,16.72
2023-02-25T01:38:46.804Z,16.72
2023-02-25T01:39:46.775Z,16.71
2023-02-25T01:40:46.771Z,16.71
2023-02-25T01:41:46.794Z,16.71
2023-02-25T01:42:46.758Z,16.71
2023-02-25T01:43:46.731Z,16.69
2023-02-25T01:44:46.735Z,16.71
2023-02-25T01:45:46.703Z,16.69
2023-02-25T01:46:46.772Z,16.69
2023-02-25T01:47:46.696Z,16.69
2023-02-25T01:48:46.706Z,16.69
2023-02-25T01:49:46.677Z,16.71
2023-02-25T01:50:46.661Z,16.69
2023-02-25T01:51:46.684Z,16.69
2023-02-25T01:52:46.625Z,16.72
2023-02-25T01:53:46.687Z,16.72
2023-02-25T01:54:46.625Z,16.72
2023-02-25T01:55:46.615Z,16.74
2023-02-25T01:56:46.645Z,16.75
2023-02-25T01:57:46.585Z,16.74
2023-02-25T01:58:46.576Z,16.74
2023-02-25T01:59:46.576Z,16.75
2023-02-25T02:00:46.594Z,16.75
2023-02-25T02:01:46.549Z,16.76
2023-02-25T02:02:46.579Z,16.76
2023-02-25T02:03:46.522Z,16.76
2023-02-25T02:04:46.557Z,16.76
2023-02-25T02:05:46.502Z,16.76
2023-02-25T02:06:46.488Z,16.76
2023-02-25T02:07:46.468Z,16.76
2023-02-25T02:08:46.508Z,16.75
2023-02-25T02:09:46.474Z,16.76
2023-02-25T02:10:46.438Z,16.78
2023-02-25T02:11:46.463Z,16.76
2023-02-25T02:12:46.440Z,16.78
2023-02-25T02:13:46.415Z,16.76
2023-02-25T02:14:46.392Z,16.79
2023-02-25T02:15:46.409Z,16.78
2023-02-25T02:16:46.388Z,16.78
2023-02-25T02:17:46.399Z,16.78
2023-02-25T02:18:46.504Z,16.78
2023-02-25T02:19:46.345Z,16.79
2023-02-25T02:20:46.331Z,16.79
2023-02-25T02:21:46.332Z,16.78
2023-02-25T02:22:46.342Z,16.78
2023-02-25T02:23:46.314Z,16.79
2023-02-25T02:24:46.311Z,16.79
2023-02-25T02:25:46.278Z,16.78
2023-02-25T02:26:46.280Z,16.79
2023-02-25T02:27:46.290Z,16.78
2023-02-25T02:28:46.288Z,16.78
2023-02-25T02:29:46.234Z,16.76
2023-02-25T02:30:46.294Z,16.75
2023-02-25T02:31:46.318Z,16.75
2023-02-25T02:32:46.309Z,16.76
2023-02-25T02:33:46.184Z,16.75
2023-02-25T02:34:46.186Z,16.75
2023-02-25T02:35:46.175Z,16.74
2023-02-25T02:36:46.163Z,16.74
2023-02-25T02:37:46.175Z,16.75
2023-02-25T02:38:46.219Z,16.74
2023-02-25T02:39:46.126Z,16.74
2023-02-25T02:40:46.155Z,16.74
2023-02-25T02:41:46.177Z,16.74
2023-02-25T02:42:46.083Z,16.74
2023-02-25T02:43:46.093Z,16.72
2023-02-25T02:44:46.155Z,16.72
2023-02-25T02:45:46.055Z,16.72
2023-02-25T02:46:46.065Z,16.72
2023-02-25T02:47:46.020Z,16.69
2023-02-25T02:48:46.059Z,16.71
2023-02-25T02:49:46.004Z,16.72
2023-02-25T02:50:45.997Z,16.69
2023-02-25T02:51:45.998Z,16.69
2023-02-25T02:52:45.991Z,16.71
2023-02-25T02:53:46.035Z,16.71
2023-02-25T02:54:45.955Z,16.71
2023-02-25T02:55:45.963Z,16.69
2023-02-25T02:56:45.920Z,16.71
2023-02-25T02:57:45.919Z,16.71
2023-02-25T02:58:45.916Z,16.69
2023-02-25T02:59:45.894Z,16.71
2023-02-25T03:00:45.910Z,16.71
2023-02-25T03:01:45.887Z,16.72
2023-02-25T03:02:45.883Z,16.71
2023-02-25T03:03:46.014Z,16.72
2023-02-25T03:04:45.845Z,16.72
2023-02-25T03:05:45.819Z,16.74
2023-02-25T03:06:45.838Z,16.75
2023-02-25T03:07:45.809Z,16.74
2023-02-25T03:08:45.857Z,16.75
2023-02-25T03:09:45.793Z,16.75
2023-02-25T03:10:45.762Z,16.75
2023-02-25T03:11:45.754Z,16.76
2023-02-25T03:12:45.773Z,16.76
2023-02-25T03:13:45.749Z,16.78
2023-02-25T03:14:46.059Z,16.76
2023-02-25T03:15:46.141Z,16.78
2023-02-25T03:16:45.841Z,16.76
2023-02-25T03:17:45.721Z,16.78
2023-02-25T03:18:45.749Z,16.79
2023-02-25T03:19:45.718Z,16.79
2023-02-25T03:20:45.684Z,16.79
2023-02-25T03:21:45.700Z,16.81
2023-02-25T03:22:45.648Z,16.81
2023-02-25T03:23:45.654Z,16.81
2023-02-25T03:24:45.693Z,16.81
2023-02-25T03:25:45.605Z,16.79
2023-02-25T03:26:45.583Z,16.81
2023-02-25T03:27:45.594Z,16.81
2023-02-25T03:28:45.607Z,16.79
2023-02-25T03:29:45.587Z,16.79
2023-02-25T03:30:45.574Z,16.79
2023-02-25T03:31:45.712Z,16.81
2023-02-25T03:32:45.585Z,16.79
2023-02-25T03:33:45.545Z,16.78
2023-02-25T03:34:45.504Z,16.79
2023-02-25T03:35:45.536Z,16.78
2023-02-25T03:36:45.514Z,16.78
2023-02-25T03:37:45.507Z,16.78
2023-02-25T03:38:45.500Z,16.75
2023-02-25T03:39:45.505Z,16.76
2023-02-25T03:40:45.459Z,16.75
2023-02-25T03:41:45.456Z,16.75
2023-02-25T03:42:45.437Z,16.75
2023-02-25T03:43:45.417Z,16.75
2023-02-25T03:44:45.448Z,16.74
2023-02-25T03:45:45.432Z,16.72
2023-02-25T03:46:45.424Z,16.72
2023-02-25T03:47:45.380Z,16.71
2023-02-25T03:48:45.380Z,16.71
2023-02-25T03:49:45.356Z,16.71
2023-02-25T03:50:45.367Z,16.69
2023-02-25T03:51:45.342Z,16.69
2023-02-25T03:52:45.356Z,16.68
2023-02-25T03:53:45.337Z,16.68
2023-02-25T03:54:45.294Z,16.68
2023-02-25T03:55:45.317Z,16.66
2023-02-25T03:56:45.308Z,16.66
2023-02-25T03:57:45.287Z,16.66
2023-02-25T03:58:45.274Z,16.65
2023-02-25T03:59:45.253Z,16.65
2023-02-25T04:00:45.279Z,16.65
2023-02-25T04:01:45.219Z,16.65
2023-02-25T04:02:45.326Z,16.65
2023-02-25T04:03:45.194Z,16.65
2023-02-25T04:04:45.299Z,16.65
2023-02-25T04:05:45.191Z,16.65
2023-02-25T04:06:45.170Z,16.64
2023-02-25T04:07:45.157Z,16.64
2023-02-25T04:08:45.182Z,16.65
2023-02-25T04:09:45.126Z,16.64
2023-02-25T04:10:45.107Z,16.65
2023-02-25T04:11:45.197Z,16.65
2023-02-25T04:12:45.098Z,16.65
2023-02-25T04:13:45.087Z,16.66
2023-02-25T04:14:45.090Z,16.65
2023-02-25T04:15:45.139Z,16.66
2023-02-25T04:16:45.033Z,16.65
2023-02-25T04:17:45.052Z,16.64
2023-02-25T04:18:45.170Z,16.65
2023-02-25T04:19:45.150Z,16.64
2023-02-25T04:20:45.059Z,16.65
2023-02-25T04:21:45.050Z,16.65
2023-02-25T04:22:45.203Z,16.61
2023-02-25T04:23:45.004Z,16.64
2023-02-25T04:24:44.956Z,16.64
2023-02-25T04:25:44.993Z,16.64
2023-02-25T04:26:44.934Z,16.61
2023-02-25T04:27:44.942Z,16.64
2023-02-25T04:28:44.934Z,16.64
2023-02-25T04:29:44.912Z,16.61
2023-02-25T04:30:45.013Z,16.61
2023-02-25T04:31:45.105Z,16.61
2023-02-25T04:32:44.930Z,16.64
2023-02-25T04:33:44.862Z,16.61
2023-02-25T04:34:44.856Z,16.64
2023-02-25T04:35:44.860Z,16.64
2023-02-25T04:36:44.871Z,16.64
2023-02-25T04:37:44.831Z,16.64
2023-02-25T04:38:44.844Z,16.65
2023-02-25T04:39:44.807Z,16.64
2023-02-25T04:40:44.772Z,16.64
2023-02-25T04:41:44.799Z,16.64
2023-02-25T04:42:44.781Z,16.64
2023-02-25T04:43:44.907Z,16.64
2023-02-25T04:44:44.743Z,16.61
2023-02-25T04:45:44.757Z,16.64
2023-02-25T04:46:44.779Z,16.61
2023-02-25T04:47:44.711Z,16.64
2023-02-25T04:48:44.704Z,16.64
2023-02-25T04:49:44.805Z,16.64
2023-02-25T04:50:44.866Z,16.64
2023-02-25T04:51:44.699Z,16.65
2023-02-25T04:52:44.685Z,16.64
2023-02-25T04:53:44.668Z,16.61
2023-02-25T04:54:44.676Z,16.64
2023-02-25T04:55:44.712Z,16.61
2023-02-25T04:56:44.619Z,16.64
2023-02-25T04:57:44.630Z,16.61
2023-02-25T04:58:44.615Z,16.61
2023-02-25T04:59:44.607Z,16.64
2023-02-25T05:00:44.605Z,16.64
2023-02-25T05:01:44.642Z,16.64
2023-02-25T05:02:44.592Z,16.64
2023-02-25T05:03:44.545Z,16.64
2023-02-25T05:04:44.627Z,16.64
2023-02-25T05:05:44.529Z,16.65
2023-02-25T05:06:44.524Z,16.65
2023-02-25T05:07:44.493Z,16.65
2023-02-25T05:08:44.831Z,16.65
2023-02-25T05:09:44.464Z,16.65
2023-02-25T05:10:44.475Z,16.65
2023-02-25T05:11:44.452Z,16.65
2023-02-25T05:12:44.424Z,16.66
2023-02-25T05:13:44.415Z,16.66
2023-02-25T05:14:44.434Z,16.68
2023-02-25T05:15:44.436Z,16.66
2023-02-25T05:16:44.398Z,16.65
2023-02-25T05:17:44.377Z,16.66
2023-02-25T05:18:44.372Z,16.68
2023-02-25T05:19:44.363Z,16.66
2023-02-25T05:20:44.468Z,16.68
2023-02-25T05:21:44.353Z,16.68
2023-02-25T05:22:44.315Z,16.69
2023-02-25T05:23:44.335Z,16.66
2023-02-25T05:24:44.332Z,16.68
2023-02-25T05:25:44.298Z,16.69
2023-02-25T05:26:44.300Z,16.69
2023-02-25T05:27:44.299Z,16.69
2023-02-25T05:28:44.269Z,16.69
2023-02-25T05:29:44.319Z,16.66
2023-02-25T05:30:44.284Z,16.66
2023-02-25T05:31:44.514Z,16.66
2023-02-25T05:32:44.431Z,16.68
2023-02-25T05:33:44.269Z,16.66
2023-02-25T05:34:44.216Z,16.66
2023-02-25T05:35:44.185Z,16.65
2023-02-25T05:36:44.170Z,16.66
2023-02-25T05:37:44.196Z,16.65
2023-02-25T05:38:44.175Z,16.66
2023-02-25T05:39:44.156Z,16.66
2023-02-25T05:40:44.137Z,16.65
2023-02-25T05:41:44.147Z,16.65
2023-02-25T05:42:44.101Z,16.65
2023-02-25T05:43:44.091Z,16.64
2023-02-25T05:44:44.103Z,16.61
2023-02-25T05:45:44.176Z,16.61
2023-02-25T05:46:44.299Z,16.61
2023-02-25T05:47:44.096Z,16.61
2023-02-25T05:48:44.061Z,16.61
2023-02-25T05:49:44.021Z,16.61
2023-02-25T05:50:44.041Z,16.61
2023-02-25T05:51:44.050Z,16.60
2023-02-25T05:52:44.059Z,16.61
2023-02-25T05:53:43.992Z,16.60
2023-02-25T05:54:43.965Z,16.60
2023-02-25T05:55:43.973Z,16.57
2023-02-25T05:56:43.953Z,16.58
2023-02-25T05:57:43.958Z,16.58
2023-02-25T05:58:43.962Z,16.57
2023-02-25T05:59:44.050Z,16.57
2023-02-25T06:00:43.923Z,16.57
2023-02-25T06:01:43.950Z,16.57
2023-02-25T06:02:43.958Z,16.57
2023-02-25T06:03:43.899Z,16.57
2023-02-25T06:04:43.852Z,16.57
2023-02-25T06:05:44.887Z,16.57
2023-02-25T06:06:43.839Z,16.60
2023-02-25T06:07:43.876Z,16.60
2023-02-25T06:08:43.880Z,16.58
2023-02-25T06:09:43.823Z,16.61
2023-02-25T06:10:43.790Z,16.61
2023-02-25T06:11:43.778Z,16.64
2023-02-25T06:12:46.254Z,16.64
2023-02-25T06:13:43.841Z,16.64
2023-02-25T06:14:43.774Z,16.64
2023-02-25T06:15:43.742Z,16.64
2023-02-25T06:16:43.751Z,16.64
2023-02-25T06:17:43.732Z,16.65
2023-02-25T06:18:43.716Z,16.65
2023-02-25T06:19:43.717Z,16.64
2023-02-25T06:20:43.842Z,16.66
2023-02-25T06:21:43.681Z,16.65
2023-02-25T06:22:43.661Z,16.66
2023-02-25T06:23:43.689Z,16.64
2023-02-25T06:24:43.645Z,16.65
2023-02-25T06:25:43.644Z,16.65
2023-02-25T06:26:43.633Z,16.65
2023-02-25T06:27:44.330Z,16.64
2023-02-25T06:28:43.604Z,16.65
2023-02-25T06:29:43.648Z,16.65
2023-02-25T06:30:43.708Z,16.66
2023-02-25T06:31:43.742Z,16.65
2023-02-25T06:32:43.619Z,16.66
2023-02-25T06:33:43.542Z,16.66
2023-02-25T06:34:43.570Z,16.64
2023-02-25T06:35:43.534Z,16.65
2023-02-25T06:36:43.514Z,16.64
2023-02-25T06:37:43.524Z,16.64
2023-02-25T06:38:43.577Z,16.61
2023-02-25T06:39:43.516Z,16.61
2023-02-25T06:40:44.184Z,16.61
2023-02-25T06:41:43.542Z,16.61
2023-02-25T06:42:43.486Z,16.61
2023-02-25T06:43:43.486Z,16.60
2023-02-25T06:44:43.537Z,16.61
2023-02-25T06:45:43.470Z,16.60
2023-02-25T06:46:43.410Z,16.58
2023-02-25T06:47:43.401Z,16.60
2023-02-25T06:48:43.398Z,16.58
2023-02-25T06:49:43.408Z,16.57
2023-02-25T06:50:43.359Z,16.57
2023-02-25T06:51:43.393Z,16.57
2023-02-25T06:52:43.349Z,16.56
2023-02-25T06:53:43.314Z,16.56
2023-02-25T06:54:43.335Z,16.56
2023-02-25T06:55:43.326Z,16.54
2023-02-25T06:56:43.302Z,16.57
2023-02-25T06:57:43.441Z,16.54
2023-02-25T06:58:43.299Z,16.56
2023-02-25T06:59:43.280Z,16.56
2023-02-25T07:00:43.254Z,16.56
2023-02-25T07:01:43.322Z,16.56
2023-02-25T07:02:43.279Z,16.56
2023-02-25T07:03:43.322Z,16.56
2023-02-25T07:04:44.198Z,16.56
2023-02-25T07:05:43.206Z,16.56
2023-02-25T07:06:43.180Z,16.56
2023-02-25T07:07:43.173Z,16.56
2023-02-25T07:08:43.167Z,16.57
2023-02-25T07:09:43.151Z,16.57
2023-02-25T07:10:43.144Z,16.58
2023-02-25T07:11:43.191Z,16.58
2023-02-25T07:12:43.146Z,16.60
2023-02-25T07:13:43.092Z,16.60
2023-02-25T07:14:43.091Z,16.60
2023-02-25T07:15:43.137Z,16.60
2023-02-25T07:16:43.194Z,16.64
2023-02-25T07:17:43.094Z,16.61
2023-02-25T07:18:43.084Z,16.64
2023-02-25T07:19:43.061Z,16.61
2023-02-25T07:20:43.185Z,16.64
2023-02-25T07:21:43.081Z,16.64
2023-02-25T07:22:43.117Z,16.64
2023-02-25T07:23:43.044Z,16.65
2023-02-25T07:24:43.252Z,16.66
2023-02-25T07:25:42.991Z,16.65
2023-02-25T07:26:42.976Z,16.66
2023-02-25T07:27:44.786Z,16.68
2023-02-25T07:28:42.944Z,16.68
2023-02-25T07:29:42.950Z,16.68
2023-02-25T07:30:43.050Z,16.68
2023-02-25T07:31:43.175Z,16.69
2023-02-25T07:32:43.190Z,16.68
2023-02-25T07:33:42.957Z,16.69
2023-02-25T07:34:42.898Z,16.68
2023-02-25T07:35:42.870Z,16.69
2023-02-25T07:36:43.853Z,16.68
2023-02-25T07:37:42.868Z,16.68
2023-02-25T07:38:42.887Z,16.66
2023-02-25T07:39:42.854Z,16.65
2023-02-25T07:40:42.972Z,16.66
2023-02-25T07:41:42.878Z,16.64
2023-02-25T07:42:42.850Z,16.64
2023-02-25T07:43:42.824Z,16.65
2023-02-25T07:44:42.893Z,16.64
2023-02-25T07:45:42.971Z,16.61
2023-02-25T07:46:42.821Z,16.64
2023-02-25T07:47:42.780Z,16.64
2023-02-25T07:48:42.766Z,16.61
2023-02-25T07:49:42.779Z,16.61
2023-02-25T07:50:42.731Z,16.60
2023-02-25T07:51:42.799Z,16.61
2023-02-25T07:52:42.743Z,16.60
2023-02-25T07:53:42.649Z,16.58
2023-02-25T07:54:42.698Z,16.58
2023-02-25T07:55:42.763Z,16.57
2023-02-25T07:56:42.804Z,16.57
2023-02-25T07:57:42.637Z,16.57
2023-02-25T07:58:42.719Z,16.56
2023-02-25T07:59:42.721Z,16.57
2023-02-25T08:00:42.645Z,16.57
2023-02-25T08:01:42.685Z,16.57
2023-02-25T08:02:42.683Z,16.56
2023-02-25T08:03:42.678Z,16.56
2023-02-25T08:04:42.604Z,16.54
2023-02-25T08:05:42.523Z,16.56
2023-02-25T08:06:42.532Z,16.54
2023-02-25T08:07:42.515Z,16.53
2023-02-25T08:08:42.562Z,16.54
2023-02-25T08:09:42.481Z,16.54
2023-02-25T08:10:42.494Z,16.56
2023-02-25T08:11:42.505Z,16.54
2023-02-25T08:12:42.495Z,16.56
2023-02-25T08:13:42.442Z,16.56
2023-02-25T08:14:42.436Z,16.57
2023-02-25T08:15:42.447Z,16.58
2023-02-25T08:16:42.428Z,16.60
2023-02-25T08:17:42.473Z,16.60
2023-02-25T08:18:42.495Z,16.58
2023-02-25T08:19:42.384Z,16.57
2023-02-25T08:20:42.390Z,16.60
2023-02-25T08:21:42.423Z,16.60
2023-02-25T08:22:42.347Z,16.60
2023-02-25T08:23:42.338Z,16.61
2023-02-25T08:24:42.362Z,16.61
2023-02-25T08:25:42.326Z,16.65
2023-02-25T08:26:42.304Z,16.65
2023-02-25T08:27:42.285Z,16.66
2023-02-25T08:28:42.285Z,16.68
2023-02-25T08:29:42.269Z,16.66
2023-02-25T08:30:42.322Z,16.66
2023-02-25T08:31:42.546Z,16.68
2023-02-25T08:32:42.556Z,16.68
2023-02-25T08:33:42.241Z,16.68
2023-02-25T08:34:42.253Z,16.68
2023-02-25T08:35:42.214Z,16.68
2023-02-25T08:36:42.202Z,16.66
2023-02-25T08:37:42.179Z,16.68
2023-02-25T08:38:42.182Z,16.69
2023-02-25T08:39:42.197Z,16.71
2023-02-25T08:40:42.148Z,16.71
2023-02-25T08:41:42.179Z,16.71
2023-02-25T08:42:42.158Z,16.71
2023-02-25T08:43:42.137Z,16.69
2023-02-25T08:44:42.183Z,16.71
2023-02-25T08:45:42.086Z,16.69
2023-02-25T08:46:42.139Z,16.68
2023-02-25T08:47:42.089Z,16.68
2023-02-25T08:48:42.132Z,16.68
2023-02-25T08:49:42.068Z,16.68
2023-02-25T08:50:42.079Z,16.66
2023-02-25T08:51:42.073Z,16.66
2023-02-25T08:52:42.410Z,16.66
2023-02-25T08:53:42.005Z,16.66
2023-02-25T08:54:42.007Z,16.65
2023-02-25T08:55:42.011Z,16.65
2023-02-25T08:56:42.006Z,16.65
2023-02-25T08:57:41.982Z,16.65
2023-02-25T08:58:41.968Z,16.64
2023-02-25T08:59:41.931Z,16.64
2023-02-25T09:00:42.008Z,16.61
2023-02-25T09:01:42.097Z,16.61
2023-02-25T09:02:41.985Z,16.60
2023-02-25T09:03:41.961Z,16.60
2023-02-25T09:04:41.914Z,16.58
2023-02-25T09:05:42.049Z,16.57
2023-02-25T09:06:41.864Z,16.57
2023-02-25T09:07:41.863Z,16.57
2023-02-25T09:08:41.848Z,16.56
2023-02-25T09:09:41.877Z,16.56
2023-02-25T09:10:50.264Z,16.54
2023-02-25T09:11:42.809Z,16.53
2023-02-25T09:12:41.827Z,16.53
2023-02-25T09:13:41.794Z,16.53
2023-02-25T09:14:41.769Z,16.53
2023-02-25T09:15:41.772Z,16.53
2023-02-25T09:16:41.796Z,16.51
2023-02-25T09:17:41.760Z,16.53
2023-02-25T09:18:41.723Z,16.53
2023-02-25T09:19:41.745Z,16.51
2023-02-25T09:20:41.783Z,16.51
2023-02-25T09:21:41.704Z,16.51
2023-02-25T09:22:41.690Z,16.53
2023-02-25T09:23:41.709Z,16.51
2023-02-25T09:24:41.696Z,16.53
2023-02-25T09:25:41.658Z,16.53
2023-02-25T09:26:41.646Z,16.54
2023-02-25T09:27:41.622Z,16.54
2023-02-25T09:28:41.625Z,16.56
2023-02-25T09:29:41.618Z,16.56
2023-02-25T09:30:41.645Z,16.56
2023-02-25T09:31:41.790Z,16.57
2023-02-25T09:32:41.702Z,16.58
2023-02-25T09:33:41.602Z,16.58
2023-02-25T09:34:41.554Z,16.58
2023-02-25T09:35:41.570Z,16.60
2023-02-25T09:36:41.569Z,16.61
2023-02-25T09:37:41.525Z,16.64
2023-02-25T09:38:41.503Z,16.65
2023-02-25T09:39:41.505Z,16.65
2023-02-25T09:40:41.516Z,16.65
2023-02-25T09:41:41.533Z,16.65
2023-02-25T09:42:41.472Z,16.65
2023-02-25T09:43:41.438Z,16.66
2023-02-25T09:44:41.439Z,16.68
2023-02-25T09:45:41.500Z,16.68
2023-02-25T09:46:41.517Z,16.69
2023-02-25T09:47:41.527Z,16.69
2023-02-25T09:48:41.429Z,16.68
2023-02-25T09:49:41.425Z,16.71
2023-02-25T09:50:41.381Z,16.71
2023-02-25T09:51:41.386Z,16.71
2023-02-25T09:52:41.348Z,16.69
2023-02-25T09:53:41.346Z,16.71
2023-02-25T09:54:41.336Z,16.71
2023-02-25T09:55:41.323Z,16.72
2023-02-25T09:56:41.344Z,16.72
2023-02-25T09:57:41.320Z,16.72
2023-02-25T09:58:41.325Z,16.72
2023-02-25T09:59:41.294Z,16.71
2023-02-25T10:00:41.269Z,16.71
2023-02-25T10:01:41.293Z,16.72
2023-02-25T10:02:41.383Z,16.72
2023-02-25T10:03:41.220Z,16.72
2023-02-25T10:04:41.266Z,16.71
2023-02-25T10:05:41.260Z,16.69
2023-02-25T10:06:43.741Z,16.71
2023-02-25T10:07:41.191Z,16.71
2023-02-25T10:08:41.182Z,16.69
2023-02-25T10:09:41.219Z,16.69
2023-02-25T10:10:41.152Z,16.68
2023-02-25T10:11:41.200Z,16.68
2023-02-25T10:13:17.421Z,16.66
2023-02-25T10:13:41.301Z,16.66
2023-02-25T10:14:41.213Z,16.68
2023-02-25T10:16:23.400Z,16.66
2023-02-25T10:16:41.245Z,16.66
2023-02-25T10:20:25.290Z,16.65
2023-02-25T10:20:30.078Z,16.61
2023-02-25T10:21:29.956Z,16.61
2023-02-25T10:22:29.953Z,16.61
2023-02-25T10:23:37.452Z,16.60
2023-02-25T10:24:29.910Z,16.60
2023-02-25T10:25:29.918Z,16.58
2023-02-25T10:26:29.910Z,16.60
2023-02-25T10:27:31.885Z,16.58
2023-02-25T10:28:29.881Z,16.57
2023-02-25T10:29:29.858Z,16.57
2023-02-25T10:30:29.989Z,16.57
2023-02-25T10:31:29.982Z,16.56
2023-02-25T10:32:29.893Z,16.57
2023-02-25T10:33:29.852Z,16.57
2023-02-25T10:34:29.822Z,16.56
2023-02-25T10:35:29.817Z,16.56
2023-02-25T10:36:29.802Z,16.56
2023-02-25T10:37:29.781Z,16.56
2023-02-25T10:38:29.809Z,16.56
2023-02-25T10:39:29.755Z,16.56
2023-02-25T10:40:29.734Z,16.56
2023-02-25T10:41:29.751Z,16.56
2023-02-25T10:42:29.725Z,16.58
2023-02-25T10:43:29.705Z,16.57
2023-02-25T10:44:29.732Z,16.58
2023-02-25T10:45:29.725Z,16.60
2023-02-25T10:46:29.812Z,16.58
2023-02-25T10:47:29.659Z,16.61
2023-02-25T10:48:29.660Z,16.61
2023-02-25T10:49:29.636Z,16.61
2023-02-25T10:50:44.418Z,16.64
2023-02-25T10:51:30.630Z,16.64
2023-02-25T10:52:29.605Z,16.66
2023-02-25T10:53:29.599Z,16.66
2023-02-25T10:54:29.592Z,16.68
2023-02-25T10:55:29.599Z,16.65
2023-02-25T10:56:29.564Z,16.66
2023-02-25T10:57:29.571Z,16.68
2023-02-25T10:58:29.601Z,16.66
2023-02-25T10:59:31.207Z,16.68
2023-02-25T11:00:29.536Z,16.68
2023-02-25T11:01:29.569Z,16.69
2023-02-25T11:02:29.529Z,16.69
2023-02-25T11:03:29.488Z,16.71
2023-02-25T11:04:29.482Z,16.71
2023-02-25T11:05:29.460Z,16.72
2023-02-25T11:06:29.462Z,16.71
2023-02-25T11:07:29.474Z,16.71
2023-02-25T11:08:29.421Z,16.69
2023-02-25T11:09:29.428Z,16.71
2023-02-25T11:10:29.404Z,16.69
2023-02-25T11:11:31.822Z,16.72
2023-02-25T11:12:29.419Z,16.71
2023-02-25T11:13:29.373Z,16.71
2023-02-25T11:14:29.375Z,16.69
2023-02-25T11:15:43.495Z,16.71
2023-02-25T11:16:30.396Z,16.69
2023-02-25T11:17:29.387Z,16.71
2023-02-25T11:18:29.335Z,16.71
2023-02-25T11:19:29.304Z,16.71
2023-02-25T11:20:29.309Z,16.71
2023-02-25T11:21:29.287Z,16.69
2023-02-25T11:22:29.297Z,16.71
2023-02-25T11:23:29.278Z,16.69
2023-02-25T11:24:29.287Z,16.69
2023-02-25T11:25:29.261Z,16.69
2023-02-25T11:26:29.235Z,16.68
2023-02-25T11:27:29.226Z,16.68
2023-02-25T11:28:29.224Z,16.68
2023-02-25T11:29:29.214Z,16.69
2023-02-25T11:30:29.273Z,16.68
2023-02-25T11:31:29.610Z,16.68
2023-02-25T11:32:29.270Z,16.68
2023-02-25T11:33:29.159Z,16.68
2023-02-25T11:34:29.150Z,16.69
2023-02-25T11:35:29.140Z,16.68
2023-02-25T11:36:29.134Z,16.69
2023-02-25T11:37:29.113Z,16.69
2023-02-25T11:38:29.092Z,16.69
2023-02-25T11:39:29.084Z,16.69
2023-02-25T11:40:29.098Z,16.68
2023-02-25T11:41:29.065Z,16.69
2023-02-25T11:42:29.046Z,16.71
2023-02-25T11:43:29.056Z,16.71
2023-02-25T11:44:29.047Z,16.69
2023-02-25T11:45:29.034Z,16.71
2023-02-25T11:46:29.008Z,16.71
2023-02-25T11:47:29.044Z,16.72
2023-02-25T11:48:28.997Z,16.72
2023-02-25T11:49:28.988Z,16.71
2023-02-25T11:50:28.985Z,16.71
2023-02-25T11:51:28.964Z,16.71
2023-02-25T11:52:28.952Z,16.71
2023-02-25T11:53:29.049Z,16.71
2023-02-25T11:54:28.924Z,16.69
2023-02-25T11:55:28.922Z,16.68
2023-02-25T11:56:28.876Z,16.66
2023-02-25T11:57:28.912Z,16.68
2023-02-25T11:58:28.867Z,16.66
2023-02-25T11:59:28.873Z,16.65
2023-02-25T12:00:28.874Z,16.66
2023-02-25T12:01:28.838Z,16.65
2023-02-25T12:02:28.864Z,16.65
2023-02-25T12:03:28.838Z,16.66
2023-02-25T12:04:28.811Z,16.66
2023-02-25T12:05:28.867Z,16.68
2023-02-25T12:06:28.793Z,16.68
2023-02-25T12:07:28.791Z,16.66
2023-02-25T12:08:28.793Z,16.66
2023-02-25T12:09:28.764Z,16.68
2023-02-25T12:10:28.725Z,16.66
2023-02-25T12:11:28.758Z,16.66
2023-02-25T12:12:28.743Z,16.69
2023-02-25T12:13:28.744Z,16.68
2023-02-25T12:14:28.699Z,16.71
2023-02-25T12:15:28.700Z,16.69
2023-02-25T12:16:28.725Z,16.69
2023-02-25T12:17:28.686Z,16.71
2023-02-25T12:18:28.658Z,16.69
2023-02-25T12:19:28.678Z,16.71
2023-02-25T12:20:28.647Z,16.71
2023-02-25T12:21:28.625Z,16.71
2023-02-25T12:22:28.598Z,16.71
2023-02-25T12:23:28.610Z,16.71
2023-02-25T12:24:28.607Z,16.72
2023-02-25T12:25:28.573Z,16.72
2023-02-25T12:26:28.572Z,16.74
2023-02-25T12:27:28.546Z,16.72
2023-02-25T12:28:28.546Z,16.74
2023-02-25T12:29:28.534Z,16.74
2023-02-25T12:30:28.545Z,16.74
2023-02-25T12:31:28.537Z,16.74
2023-02-25T12:32:28.603Z,16.72
2023-02-25T12:33:28.519Z,16.74
2023-02-25T12:34:28.473Z,16.72
2023-02-25T12:35:28.476Z,16.72
2023-02-25T12:36:28.463Z,16.72
2023-02-25T12:37:28.444Z,16.72
2023-02-25T12:38:28.437Z,16.72
2023-02-25T12:39:28.422Z,16.72
2023-02-25T12:40:28.440Z,16.74
2023-02-25T12:41:28.428Z,16.72
2023-02-25T12:42:28.389Z,16.72
2023-02-25T12:43:28.458Z,16.71
2023-02-25T12:44:28.370Z,16.74
2023-02-25T12:45:28.394Z,16.72
2023-02-25T12:46:28.715Z,16.72
2023-02-25T12:47:28.338Z,16.71
2023-02-25T12:48:28.346Z,16.71
2023-02-25T12:49:28.303Z,16.71
2023-02-25T12:50:28.306Z,16.71
2023-02-25T12:51:28.313Z,16.72
2023-02-25T12:52:28.296Z,16.69
2023-02-25T12:53:28.281Z,16.69
2023-02-25T12:54:28.258Z,16.68